Time;durP1;ratioP1;P1;durP2;ratioP2;P2;SDS_P1;SDS_P2;PMS_P1;PMS_P2;Temp;Humidity;BMP_temperature;BMP_pressure;BME280_temperature;BME280_humidity;BME280_pressure;Samples;Min_cycle;Max_cycle;Signal;HPM_P1;HPM_P2
2021/11/14 00:01:21;;;;;;;31.87;14.83;;;10.10;99.90;;;;;;5091923;27;20193;-59
2021/11/14 00:03:50;;;;;;;25.63;14.37;;;10.10;99.90;;;;;;5105024;27;20186;-58
2021/11/14 00:06:20;;;;;;;30.97;15.03;;;10.10;99.90;;;;;;5106040;28;20289;-59
2021/11/14 00:08:51;;;;;;;32.20;15.53;;;10.10;99.90;;;;;;5104937;28;20186;-59
2021/11/14 00:11:21;;;;;;;31.33;17.63;;;10.10;99.90;;;;;;5101414;28;20719;-59
2021/11/14 00:13:51;;;;;;;39.03;17.33;;;10.10;99.90;;;;;;5104816;27;20718;-58
2021/11/14 00:16:21;;;;;;;28.47;16.23;;;10.10;99.90;;;;;;5097994;28;20980;-59
2021/11/14 00:18:50;;;;;;;27.80;16.67;;;10.00;99.90;;;;;;5099464;28;20713;-58
2021/11/14 00:21:21;;;;;;;31.23;17.00;;;10.00;99.90;;;;;;5102381;28;20274;-58
2021/11/14 00:23:52;;;;;;;31.83;16.10;;;10.00;99.90;;;;;;5103088;27;20201;-58
2021/11/14 00:26:21;;;;;;;35.50;16.43;;;10.00;99.90;;;;;;5101854;28;20713;-58
2021/11/14 00:28:49;;;;;;;28.70;15.93;;;10.00;99.90;;;;;;5105595;28;20248;-58
2021/11/14 00:31:19;;;;;;;29.50;15.87;;;10.00;99.90;;;;;;5104956;28;20286;-58
2021/11/14 00:33:49;;;;;;;27.33;15.77;;;10.00;99.90;;;;;;5106813;28;20260;-58
2021/11/14 00:36:24;;;;;;;31.00;17.00;;;10.00;99.90;;;;;;5116391;27;20195;-59
2021/11/14 00:38:54;;;;;;;30.40;16.17;;;10.00;99.90;;;;;;5100354;28;20646;-59
2021/11/14 00:41:24;;;;;;;33.27;17.10;;;10.00;99.90;;;;;;5107037;28;20218;-59
2021/11/14 00:43:53;;;;;;;30.47;17.10;;;10.00;99.90;;;;;;5101898;28;20203;-59
2021/11/14 00:46:22;;;;;;;31.90;16.90;;;10.10;99.90;;;;;;5101964;28;20240;-59
2021/11/14 00:48:52;;;;;;;34.57;17.27;;;10.10;99.90;;;;;;5103338;28;20213;-59
2021/11/14 00:51:28;;;;;;;32.53;16.67;;;10.10;99.90;;;;;;5113740;27;20198;-59
2021/11/14 00:53:59;;;;;;;32.87;17.40;;;10.10;99.90;;;;;;5102921;28;20219;-59
2021/11/14 00:56:28;;;;;;;30.63;17.47;;;10.10;99.90;;;;;;5105929;27;20183;-59
2021/11/14 00:58:57;;;;;;;33.57;17.60;;;10.10;99.90;;;;;;5105079;28;20223;-59
2021/11/14 01:01:26;;;;;;;30.83;16.57;;;10.00;99.90;;;;;;5098306;28;20231;-59
2021/11/14 01:04:32;;;;;;;34.00;16.90;;;10.00;99.90;;;;;;5109295;28;20585;-59
2021/11/14 01:07:38;;;;;;;33.90;18.00;;;10.00;99.90;;;;;;5105513;28;20668;-60
2021/11/14 01:10:12;;;;;;;32.40;17.00;;;10.10;99.90;;;;;;5097080;28;20202;-58
2021/11/14 01:12:40;;;;;;;28.23;15.93;;;10.10;99.90;;;;;;5123623;27;20176;-59
2021/11/14 01:15:12;;;;;;;34.70;16.73;;;10.10;99.90;;;;;;5106461;27;20190;-59
2021/11/14 01:17:40;;;;;;;29.03;17.73;;;10.00;99.90;;;;;;5110948;27;20222;-59
2021/11/14 01:20:16;;;;;;;30.23;17.20;;;10.00;99.90;;;;;;5103148;27;20576;-59
2021/11/14 01:22:44;;;;;;;35.83;17.97;;;10.00;99.90;;;;;;5113241;27;20626;-60
2021/11/14 01:25:18;;;;;;;34.70;18.97;;;10.10;99.90;;;;;;5114174;27;20538;-59
2021/11/14 01:27:47;;;;;;;36.53;18.17;;;10.10;99.90;;;;;;5109911;27;20261;-60
2021/11/14 01:30:21;;;;;;;31.97;17.93;;;10.10;99.90;;;;;;5114276;27;20203;-59
2021/11/14 01:32:54;;;;;;;35.97;18.30;;;10.10;99.90;;;;;;5108018;27;20285;-59
2021/11/14 01:35:23;;;;;;;38.17;18.87;;;10.10;99.90;;;;;;5104055;27;21622;-59
2021/11/14 01:37:53;;;;;;;36.47;19.40;;;10.10;99.90;;;;;;5102958;27;20222;-59
2021/11/14 01:40:25;;;;;;;38.57;19.57;;;10.10;99.90;;;;;;5110357;27;20230;-59
2021/11/14 01:42:55;;;;;;;33.97;19.83;;;10.10;99.90;;;;;;5106088;27;20300;-59
2021/11/14 01:45:24;;;;;;;41.97;20.27;;;10.10;99.90;;;;;;5103721;27;20211;-59
2021/11/14 01:47:52;;;;;;;42.63;20.10;;;10.10;99.90;;;;;;5103710;27;20256;-60
2021/11/14 01:50:24;;;;;;;44.57;20.60;;;10.10;99.90;;;;;;5116976;27;20585;-59
2021/11/14 01:52:53;;;;;;;43.70;21.50;;;10.10;99.90;;;;;;5107596;27;20285;-60
2021/11/14 01:55:26;;;;;;;47.23;21.10;;;10.10;99.90;;;;;;5111547;27;20199;-59
2021/11/14 01:57:56;;;;;;;44.97;21.50;;;10.20;99.90;;;;;;5101161;27;20253;-59
2021/11/14 02:00:27;;;;;;;40.77;21.23;;;10.20;99.90;;;;;;5106042;27;20324;-60
2021/11/14 02:02:56;;;;;;;43.00;21.70;;;10.20;99.90;;;;;;5104459;27;20660;-60
2021/11/14 02:05:30;;;;;;;49.07;22.13;;;10.10;99.90;;;;;;5105553;27;20261;-59
2021/11/14 02:08:01;;;;;;;44.63;21.27;;;10.20;99.90;;;;;;5107877;27;20251;-60
2021/11/14 02:10:31;;;;;;;50.57;22.33;;;10.20;99.90;;;;;;5111530;27;20677;-59
2021/11/14 02:13:06;;;;;;;38.70;20.80;;;10.20;99.90;;;;;;5100554;27;20551;-59
2021/11/14 02:15:36;;;;;;;33.40;19.33;;;10.20;99.90;;;;;;5101928;27;20712;-59
2021/11/14 02:18:06;;;;;;;45.80;21.37;;;10.20;99.90;;;;;;5105126;27;20298;-59
2021/11/14 02:20:36;;;;;;;48.07;22.10;;;10.20;99.90;;;;;;5102173;28;20261;-60
2021/11/14 02:23:07;;;;;;;40.17;20.87;;;10.20;99.90;;;;;;5107132;27;20270;-59
2021/11/14 02:25:36;;;;;;;42.13;20.97;;;10.20;99.90;;;;;;5109450;27;20195;-59
2021/11/14 02:28:05;;;;;;;42.57;21.57;;;10.20;99.90;;;;;;5102693;27;20266;-58
2021/11/14 02:30:34;;;;;;;49.13;22.87;;;10.20;99.90;;;;;;5112526;27;20245;-59
2021/11/14 02:33:02;;;;;;;48.60;22.07;;;10.20;99.90;;;;;;5114746;27;20195;-59
2021/11/14 02:35:43;;;;;;;44.40;21.87;;;10.20;99.90;;;;;;5102512;27;20289;-59
2021/11/14 02:38:11;;;;;;;47.10;22.20;;;10.20;99.90;;;;;;5103136;27;20279;-58
2021/11/14 02:40:42;;;;;;;54.70;22.67;;;10.20;99.90;;;;;;5107092;27;20276;-60
2021/11/14 02:43:11;;;;;;;41.13;21.33;;;10.20;99.90;;;;;;5108069;27;20196;-59
2021/11/14 02:45:41;;;;;;;46.77;22.87;;;10.20;99.90;;;;;;5109368;27;20280;-59
2021/11/14 02:48:14;;;;;;;42.53;21.50;;;10.20;99.90;;;;;;5108137;27;20282;-59
2021/11/14 02:50:47;;;;;;;47.10;23.30;;;10.20;99.90;;;;;;5101392;27;20609;-59
2021/11/14 02:53:16;;;;;;;44.43;21.57;;;10.20;99.90;;;;;;5092470;28;20816;-59
2021/11/14 02:55:47;;;;;;;44.93;23.43;;;10.20;99.90;;;;;;5106402;27;20202;-59
2021/11/14 02:58:17;;;;;;;44.00;23.43;;;10.20;99.90;;;;;;5107840;27;20195;-60
2021/11/14 03:00:49;;;;;;;47.40;24.43;;;10.20;99.90;;;;;;5106922;27;20658;-59
2021/11/14 03:03:18;;;;;;;43.27;23.07;;;10.20;99.90;;;;;;5112108;27;20218;-59
2021/11/14 03:05:48;;;;;;;44.40;23.27;;;10.20;99.90;;;;;;5102735;27;20256;-59
2021/11/14 03:08:16;;;;;;;46.67;24.00;;;10.20;99.90;;;;;;5105114;27;20186;-59
2021/11/14 03:10:45;;;;;;;50.97;24.13;;;10.20;99.90;;;;;;5110349;27;20233;-58
2021/11/14 03:13:16;;;;;;;51.10;23.63;;;10.20;99.90;;;;;;5105498;27;20326;-60
2021/11/14 03:15:47;;;;;;;43.80;22.33;;;10.20;99.90;;;;;;5104208;27;20199;-59
2021/11/14 03:18:16;;;;;;;48.23;23.40;;;10.20;99.90;;;;;;5105025;28;20199;-59
2021/11/14 03:20:48;;;;;;;49.17;24.77;;;10.10;99.90;;;;;;5112546;27;20198;-58
2021/11/14 03:23:19;;;;;;;47.97;23.87;;;10.10;99.90;;;;;;5105981;27;20232;-60
2021/11/14 03:25:49;;;;;;;48.57;23.00;;;10.10;99.90;;;;;;5110751;27;20222;-59
2021/11/14 03:28:21;;;;;;;40.30;21.60;;;10.10;99.90;;;;;;5106359;27;20282;-59
2021/11/14 03:30:52;;;;;;;43.77;23.20;;;10.10;99.90;;;;;;5104812;27;20186;-59
2021/11/14 03:33:21;;;;;;;49.77;24.90;;;10.10;99.90;;;;;;5111825;27;20192;-60
2021/11/14 03:35:53;;;;;;;51.90;25.10;;;10.10;99.90;;;;;;5107864;27;20226;-59
2021/11/14 03:38:25;;;;;;;54.63;26.00;;;10.10;99.90;;;;;;5101660;27;20272;-60
2021/11/14 03:40:54;;;;;;;58.23;25.83;;;10.10;99.90;;;;;;5106098;27;20732;-59
2021/11/14 03:43:23;;;;;;;49.37;24.50;;;10.10;99.90;;;;;;5118794;27;20202;-58
2021/11/14 03:45:51;;;;;;;57.00;26.37;;;10.10;99.90;;;;;;5098494;28;20222;-59
2021/11/14 03:48:22;;;;;;;49.33;24.53;;;10.10;99.90;;;;;;5106673;27;20187;-59
2021/11/14 03:50:52;;;;;;;54.37;24.37;;;10.10;99.90;;;;;;5111975;27;20593;-59
2021/11/14 03:53:22;;;;;;;64.93;27.20;;;10.10;99.90;;;;;;5106942;27;20251;-59
2021/11/14 03:55:54;;;;;;;61.27;25.83;;;10.10;99.90;;;;;;5105763;27;20681;-59
2021/11/14 03:58:25;;;;;;;53.73;25.83;;;10.10;99.90;;;;;;5112278;27;20191;-59
2021/11/14 04:00:56;;;;;;;51.40;24.83;;;10.10;99.90;;;;;;5115003;27;20299;-58
2021/11/14 04:03:26;;;;;;;55.20;26.27;;;10.10;99.90;;;;;;5104774;27;20972;-59
2021/11/14 04:05:56;;;;;;;56.37;25.27;;;10.10;99.90;;;;;;5101131;27;20211;-60
2021/11/14 04:08:26;;;;;;;60.10;25.60;;;10.10;99.90;;;;;;5104359;27;20218;-60
2021/11/14 04:10:57;;;;;;;63.43;26.33;;;10.10;99.90;;;;;;5102365;27;20255;-59
2021/11/14 04:13:26;;;;;;;72.20;27.93;;;10.10;99.90;;;;;;5105463;27;20200;-58
2021/11/14 04:15:55;;;;;;;56.23;25.53;;;10.20;99.90;;;;;;5099882;27;20219;-59
2021/11/14 04:18:23;;;;;;;61.10;27.47;;;10.20;99.90;;;;;;5097660;27;20285;-59
2021/11/14 04:20:52;;;;;;;60.20;25.83;;;10.20;99.90;;;;;;5106329;27;20306;-59
2021/11/14 04:23:22;;;;;;;61.10;26.87;;;10.20;99.90;;;;;;5107266;27;20194;-58
2021/11/14 04:25:50;;;;;;;61.73;26.30;;;10.20;99.90;;;;;;5104895;27;20223;-59
2021/11/14 04:28:20;;;;;;;71.53;28.27;;;10.20;99.90;;;;;;5108526;27;20274;-59
2021/11/14 04:30:50;;;;;;;74.83;27.93;;;10.20;99.90;;;;;;5099580;27;20228;-59
2021/11/14 04:33:20;;;;;;;78.47;31.10;;;10.20;99.90;;;;;;5104701;27;20256;-60
2021/11/14 04:35:49;;;;;;;85.97;30.07;;;10.20;99.90;;;;;;5104080;27;20195;-60
2021/11/14 04:38:18;;;;;;;81.97;31.47;;;10.20;99.90;;;;;;5103886;27;20712;-59
2021/11/14 04:40:50;;;;;;;81.03;29.93;;;10.20;99.90;;;;;;5104630;28;20310;-59
2021/11/14 04:43:20;;;;;;;90.37;32.53;;;10.20;99.90;;;;;;5103917;27;20338;-59
2021/11/14 04:45:50;;;;;;;88.43;31.87;;;10.30;99.90;;;;;;5107866;27;20313;-58
2021/11/14 04:48:19;;;;;;;105.03;35.17;;;10.30;99.90;;;;;;5104901;27;20279;-59
2021/11/14 04:50:48;;;;;;;97.57;35.37;;;10.30;99.90;;;;;;5107908;28;20210;-59
2021/11/14 04:53:17;;;;;;;104.10;34.77;;;10.20;99.90;;;;;;5103228;28;20237;-59
2021/11/14 04:55:46;;;;;;;104.33;36.17;;;10.20;99.90;;;;;;5106149;28;20194;-59
2021/11/14 04:58:16;;;;;;;116.10;35.30;;;10.20;99.90;;;;;;5104986;28;20214;-59
2021/11/14 05:00:48;;;;;;;105.53;36.10;;;10.30;99.90;;;;;;5101212;27;20733;-59
2021/11/14 05:03:18;;;;;;;105.63;35.10;;;10.30;99.90;;;;;;5109085;28;20195;-59
2021/11/14 05:05:46;;;;;;;117.77;37.80;;;10.30;99.90;;;;;;5101672;28;20194;-59
2021/11/14 05:08:18;;;;;;;124.97;36.63;;;10.30;99.90;;;;;;5108205;28;20195;-60
2021/11/14 05:10:49;;;;;;;135.67;39.33;;;10.30;99.90;;;;;;5118887;27;20228;-59
2021/11/14 05:13:20;;;;;;;126.50;38.83;;;10.30;99.90;;;;;;5110821;28;20248;-58
2021/11/14 05:15:49;;;;;;;113.77;37.73;;;10.30;99.90;;;;;;5100723;28;20194;-59
2021/11/14 05:18:17;;;;;;;128.63;39.17;;;10.30;99.90;;;;;;5107444;28;20203;-59
2021/11/14 05:20:46;;;;;;;141.43;43.03;;;10.30;99.90;;;;;;5106049;28;20234;-57
2021/11/14 05:23:16;;;;;;;139.53;41.33;;;10.30;99.90;;;;;;5109934;28;20225;-59
2021/11/14 05:25:45;;;;;;;159.47;43.63;;;10.30;99.90;;;;;;5105051;27;20208;-59
2021/11/14 05:28:14;;;;;;;162.20;45.47;;;10.30;99.90;;;;;;5106196;28;20191;-59
2021/11/14 05:30:44;;;;;;;153.67;42.70;;;10.20;99.90;;;;;;5095138;28;20194;-58
2021/11/14 05:33:13;;;;;;;158.00;43.07;;;10.30;99.90;;;;;;5106294;28;20290;-58
2021/11/14 05:35:42;;;;;;;149.03;44.53;;;10.30;99.90;;;;;;5104872;28;20194;-58
2021/11/14 05:38:11;;;;;;;151.63;44.13;;;10.20;99.90;;;;;;5108746;28;20227;-59
2021/11/14 05:40:40;;;;;;;153.83;44.17;;;10.20;99.90;;;;;;5103063;27;20222;-59
2021/11/14 05:43:09;;;;;;;166.23;45.20;;;10.20;99.90;;;;;;5111324;28;20623;-58
2021/11/14 05:45:37;;;;;;;147.70;40.73;;;10.20;99.90;;;;;;5099247;28;20200;-59
2021/11/14 05:48:07;;;;;;;155.13;42.97;;;10.20;99.90;;;;;;5105731;28;20278;-59
2021/11/14 05:50:36;;;;;;;149.50;42.70;;;10.20;99.90;;;;;;5103982;28;20194;-59
2021/11/14 05:53:05;;;;;;;147.97;42.07;;;10.20;99.90;;;;;;5104193;28;20249;-59
2021/11/14 05:55:34;;;;;;;155.13;41.37;;;10.20;99.90;;;;;;5086150;28;20411;-58
2021/11/14 05:58:04;;;;;;;152.83;41.67;;;10.20;99.90;;;;;;5095635;27;22448;-59
2021/11/14 06:00:43;;;;;;;146.73;41.57;;;10.20;99.90;;;;;;5101860;27;20218;-59
2021/11/14 06:03:24;;;;;;;148.83;41.83;;;10.20;99.90;;;;;;5105797;27;20205;-59
2021/11/14 06:05:53;;;;;;;141.67;40.20;;;10.10;99.90;;;;;;5104118;27;20206;-60
2021/11/14 06:08:21;;;;;;;144.50;40.70;;;10.10;99.90;;;;;;5109975;27;20226;-59
2021/11/14 06:10:51;;;;;;;133.70;38.30;;;10.10;99.90;;;;;;5106331;27;20190;-57
2021/11/14 06:13:20;;;;;;;139.70;39.03;;;10.10;99.90;;;;;;5107807;27;20314;-59
2021/11/14 06:15:49;;;;;;;126.10;38.50;;;10.10;99.90;;;;;;5105964;27;20207;-59
2021/11/14 06:18:20;;;;;;;136.17;38.03;;;10.10;99.90;;;;;;5108508;27;20263;-59
2021/11/14 06:20:49;;;;;;;121.40;34.47;;;10.00;99.90;;;;;;5105355;27;20215;-59
2021/11/14 06:23:18;;;;;;;124.07;35.80;;;10.00;99.90;;;;;;5104091;27;20199;-59
2021/11/14 06:25:46;;;;;;;115.87;35.40;;;10.00;99.90;;;;;;5105626;27;20243;-59
2021/11/14 06:28:14;;;;;;;117.37;36.33;;;10.00;99.90;;;;;;5104244;27;20198;-59
2021/11/14 06:30:44;;;;;;;119.20;37.50;;;10.00;99.90;;;;;;5100231;27;20233;-58
2021/11/14 06:33:12;;;;;;;116.70;35.80;;;10.00;99.90;;;;;;5107168;27;20198;-59
2021/11/14 06:35:42;;;;;;;125.37;35.53;;;10.00;99.90;;;;;;5109969;27;20196;-59
2021/11/14 06:38:11;;;;;;;111.47;35.10;;;10.00;99.90;;;;;;5119978;27;20233;-59
2021/11/14 06:40:39;;;;;;;122.77;37.20;;;9.90;99.90;;;;;;5107264;27;20263;-59
2021/11/14 06:43:08;;;;;;;122.73;37.07;;;9.90;99.90;;;;;;5100678;27;20255;-59
2021/11/14 06:45:36;;;;;;;122.87;37.23;;;9.90;99.90;;;;;;5108172;27;20295;-58
2021/11/14 06:48:05;;;;;;;122.67;37.13;;;9.90;99.90;;;;;;5103948;27;20665;-59
2021/11/14 06:50:33;;;;;;;131.37;38.43;;;9.90;99.90;;;;;;5112164;27;20197;-59
2021/11/14 06:53:04;;;;;;;146.20;41.27;;;9.90;99.90;;;;;;5109679;27;20198;-59
2021/11/14 06:55:32;;;;;;;135.53;40.93;;;9.90;99.90;;;;;;5097812;27;20195;-57
2021/11/14 06:58:01;;;;;;;136.77;40.20;;;9.90;99.90;;;;;;5104751;27;20284;-60
2021/11/14 07:00:30;;;;;;;128.27;39.63;;;9.90;99.90;;;;;;5108824;27;20187;-59
2021/11/14 07:03:00;;;;;;;138.47;39.77;;;9.90;99.90;;;;;;5103568;27;20297;-59
2021/11/14 07:05:28;;;;;;;134.80;39.73;;;9.90;99.90;;;;;;5107869;27;20186;-59
2021/11/14 07:07:57;;;;;;;144.23;40.33;;;9.90;99.90;;;;;;5111478;27;20752;-58
2021/11/14 07:10:27;;;;;;;144.37;41.50;;;9.90;99.90;;;;;;5106028;27;20760;-58
2021/11/14 07:12:56;;;;;;;128.73;38.07;;;9.90;99.90;;;;;;5105695;27;20220;-59
2021/11/14 07:15:24;;;;;;;136.53;39.93;;;9.90;99.90;;;;;;5104941;27;20219;-58
2021/11/14 07:17:53;;;;;;;136.80;40.23;;;9.90;99.90;;;;;;5109531;27;20202;-58
2021/11/14 07:20:21;;;;;;;136.00;40.20;;;9.90;99.90;;;;;;5102578;27;20199;-57
2021/11/14 07:22:50;;;;;;;140.37;39.60;;;9.90;99.90;;;;;;5105337;27;20195;-60
2021/11/14 07:25:19;;;;;;;141.90;41.03;;;9.90;99.90;;;;;;5107950;27;20282;-58
2021/11/14 07:27:50;;;;;;;124.40;38.27;;;9.90;99.90;;;;;;5106561;27;20198;-58
2021/11/14 07:30:21;;;;;;;126.03;38.63;;;9.90;99.90;;;;;;5105775;27;20211;-58
2021/11/14 07:32:49;;;;;;;120.97;37.20;;;9.90;99.90;;;;;;5113675;27;20525;-58
2021/11/14 07:35:21;;;;;;;122.13;37.07;;;9.90;99.90;;;;;;5101780;27;20226;-57
2021/11/14 07:37:49;;;;;;;119.93;36.63;;;9.90;99.90;;;;;;5101338;27;20231;-59
2021/11/14 07:40:20;;;;;;;118.03;37.00;;;9.90;99.90;;;;;;5103500;28;20222;-59
2021/11/14 07:42:51;;;;;;;118.50;37.23;;;9.90;99.90;;;;;;5108660;27;20272;-59
2021/11/14 07:45:21;;;;;;;117.47;39.47;;;9.80;99.90;;;;;;5106004;27;20264;-59
2021/11/14 07:47:51;;;;;;;107.93;38.97;;;9.80;99.90;;;;;;5105622;27;20744;-58
2021/11/14 07:50:22;;;;;;;111.63;40.70;;;9.80;99.90;;;;;;5104891;27;20195;-59
2021/11/14 07:52:54;;;;;;;102.07;33.33;;;9.80;99.90;;;;;;5098926;27;20248;-58
2021/11/14 07:55:22;;;;;;;90.83;32.27;;;9.80;99.90;;;;;;5100041;27;20656;-58
2021/11/14 07:57:52;;;;;;;86.87;31.03;;;9.90;99.90;;;;;;5102064;27;20251;-56
2021/11/14 08:00:22;;;;;;;83.57;30.23;;;9.90;99.90;;;;;;5103823;28;20268;-58
2021/11/14 08:02:51;;;;;;;85.37;29.93;;;9.90;99.90;;;;;;5105682;27;20218;-58
2021/11/14 08:05:21;;;;;;;80.00;29.37;;;9.80;99.90;;;;;;5098077;27;20646;-60
2021/11/14 08:07:50;;;;;;;78.53;29.60;;;9.80;99.90;;;;;;5103765;28;20599;-59
2021/11/14 08:10:21;;;;;;;74.93;28.80;;;9.90;99.90;;;;;;5107532;28;20664;-58
2021/11/14 08:12:49;;;;;;;87.70;29.90;;;9.90;99.90;;;;;;5108797;27;20197;-59
2021/11/14 08:15:21;;;;;;;72.73;27.83;;;9.90;99.90;;;;;;5103106;27;20554;-58
2021/11/14 08:17:50;;;;;;;72.70;27.80;;;10.00;99.90;;;;;;5101612;27;20187;-59
2021/11/14 08:20:19;;;;;;;72.20;28.40;;;10.00;99.90;;;;;;5105572;27;20221;-58
2021/11/14 08:22:48;;;;;;;73.87;29.67;;;10.00;99.90;;;;;;5114903;27;20280;-60
2021/11/14 08:25:18;;;;;;;69.23;28.47;;;10.10;99.90;;;;;;5102551;27;20195;-59
2021/11/14 08:27:47;;;;;;;69.27;29.13;;;10.10;99.90;;;;;;5103408;27;20192;-58
2021/11/14 08:30:17;;;;;;;72.13;31.17;;;10.10;99.90;;;;;;5108094;27;20291;-59
2021/11/14 08:32:47;;;;;;;65.37;28.77;;;10.10;99.90;;;;;;5099441;27;20237;-58
2021/11/14 08:35:18;;;;;;;71.83;29.83;;;10.10;99.90;;;;;;5097487;27;20234;-58
2021/11/14 08:37:48;;;;;;;67.50;28.80;;;10.10;99.90;;;;;;5109584;27;20219;-59
2021/11/14 08:40:17;;;;;;;75.30;30.57;;;10.20;99.90;;;;;;5105498;27;20188;-58
2021/11/14 08:42:47;;;;;;;72.10;30.07;;;10.20;99.90;;;;;;5099868;28;21503;-59
2021/11/14 08:45:16;;;;;;;67.83;30.27;;;10.20;99.90;;;;;;5102440;28;20649;-59
2021/11/14 08:47:44;;;;;;;67.57;30.90;;;10.20;99.90;;;;;;5106965;27;20182;-58
2021/11/14 08:50:14;;;;;;;75.23;32.13;;;10.20;99.90;;;;;;5100040;28;20265;-58
2021/11/14 08:52:45;;;;;;;66.63;30.57;;;10.20;99.90;;;;;;5103351;28;20552;-59
2021/11/14 08:55:16;;;;;;;75.07;32.43;;;10.20;99.90;;;;;;5103944;28;20191;-59
2021/11/14 08:57:46;;;;;;;77.47;31.27;;;10.30;99.90;;;;;;5095828;28;20382;-58
2021/11/14 09:00:16;;;;;;;74.43;31.63;;;10.30;99.90;;;;;;5102600;28;20209;-60
2021/11/14 09:02:46;;;;;;;72.47;32.57;;;10.30;99.90;;;;;;5106186;28;20781;-60
2021/11/14 09:05:17;;;;;;;75.80;31.80;;;10.20;99.90;;;;;;5100647;28;20199;-58
2021/11/14 09:07:45;;;;;;;73.20;31.20;;;10.30;99.90;;;;;;5108849;28;20729;-58
2021/11/14 09:10:14;;;;;;;74.83;33.97;;;10.30;99.90;;;;;;5103931;28;20211;-58
2021/11/14 09:12:42;;;;;;;74.13;31.83;;;10.30;99.90;;;;;;5103070;28;20648;-59
2021/11/14 09:15:11;;;;;;;70.33;32.53;;;10.30;99.90;;;;;;5100301;28;20607;-59
2021/11/14 09:17:40;;;;;;;77.73;33.73;;;10.40;99.90;;;;;;5104127;28;20260;-59
2021/11/14 09:20:10;;;;;;;71.07;32.50;;;10.40;99.90;;;;;;5102476;28;20576;-58
2021/11/14 09:22:40;;;;;;;72.33;32.27;;;10.40;99.90;;;;;;5099043;28;20234;-59
2021/11/14 09:25:17;;;;;;;77.17;33.77;;;10.40;99.90;;;;;;5093349;28;20676;-59
2021/11/14 09:27:45;;;;;;;82.10;34.73;;;10.40;99.90;;;;;;5105777;28;20194;-58
2021/11/14 09:30:19;;;;;;;77.77;34.33;;;10.40;99.90;;;;;;5083731;28;20205;-59
2021/11/14 09:32:47;;;;;;;75.57;34.00;;;10.40;99.90;;;;;;5097867;27;20586;-59
2021/11/14 09:35:16;;;;;;;78.53;34.10;;;10.50;99.90;;;;;;5105435;27;20199;-58
2021/11/14 09:37:48;;;;;;;78.33;33.30;;;10.40;99.90;;;;;;5101134;27;20828;-59
2021/11/14 09:40:19;;;;;;;85.27;34.67;;;10.40;99.90;;;;;;5105852;27;20191;-59
2021/11/14 09:42:48;;;;;;;80.87;32.97;;;10.50;99.90;;;;;;5106335;27;20292;-59
2021/11/14 09:45:16;;;;;;;80.77;34.37;;;10.50;99.90;;;;;;5107670;27;20197;-59
2021/11/14 09:47:45;;;;;;;84.40;35.77;;;10.50;99.90;;;;;;5107156;27;20198;-58
2021/11/14 09:50:14;;;;;;;89.67;36.80;;;10.50;99.90;;;;;;5099722;27;20805;-60
2021/11/14 09:52:42;;;;;;;90.00;36.10;;;10.40;99.90;;;;;;5102456;27;20678;-58
2021/11/14 09:55:15;;;;;;;96.40;37.00;;;10.50;99.90;;;;;;5106656;27;20679;-60
2021/11/14 09:57:44;;;;;;;94.17;36.50;;;10.40;99.90;;;;;;5104592;27;20660;-59
2021/11/14 10:00:14;;;;;;;94.27;37.07;;;10.40;99.90;;;;;;5114922;27;20664;-59
2021/11/14 10:02:48;;;;;;;102.00;38.43;;;10.50;99.90;;;;;;5106363;27;20203;-59
2021/11/14 10:05:17;;;;;;;99.43;39.70;;;10.50;99.90;;;;;;5102421;27;20693;-59
2021/11/14 10:07:58;;;;;;;97.87;38.70;;;10.40;99.90;;;;;;5108768;28;20263;-59
2021/11/14 10:10:30;;;;;;;97.43;37.97;;;10.40;99.90;;;;;;5100285;28;20256;-59
2021/11/14 10:13:13;;;;;;;96.00;38.03;;;10.50;99.90;;;;;;5104829;28;20874;-59
2021/11/14 10:15:42;;;;;;;90.67;37.43;;;10.50;99.90;;;;;;5104509;28;20225;-59
2021/11/14 10:18:12;;;;;;;96.47;38.00;;;10.50;99.90;;;;;;5106102;28;20246;-58
2021/11/14 10:20:40;;;;;;;93.17;37.50;;;10.50;99.90;;;;;;5108139;28;20206;-59
2021/11/14 10:23:14;;;;;;;92.83;35.97;;;10.60;99.90;;;;;;5106185;28;20294;-59
2021/11/14 10:25:46;;;;;;;89.10;35.47;;;10.60;99.90;;;;;;5104081;28;21968;-59
2021/11/14 10:28:15;;;;;;;90.53;35.57;;;10.60;99.90;;;;;;5108482;27;20199;-59
2021/11/14 10:30:45;;;;;;;86.60;35.40;;;10.70;99.90;;;;;;5098726;28;20206;-59
2021/11/14 10:33:16;;;;;;;81.10;34.57;;;10.70;99.90;;;;;;5105773;28;20767;-58
2021/11/14 10:35:48;;;;;;;89.03;37.10;;;10.70;99.90;;;;;;5106302;28;20754;-59
2021/11/14 10:38:18;;;;;;;85.87;36.60;;;10.60;99.90;;;;;;5106881;27;20231;-59
2021/11/14 10:40:50;;;;;;;92.63;35.80;;;10.60;99.90;;;;;;5108268;27;20253;-59
2021/11/14 10:43:22;;;;;;;89.23;36.27;;;10.60;99.90;;;;;;5100287;28;20217;-58
2021/11/14 10:45:52;;;;;;;81.73;34.27;;;10.60;99.90;;;;;;5097351;28;20188;-59
2021/11/14 10:48:23;;;;;;;82.40;34.73;;;10.60;99.90;;;;;;5102174;27;20217;-60
2021/11/14 10:50:56;;;;;;;82.63;34.60;;;10.60;99.90;;;;;;5101070;28;20203;-58
2021/11/14 10:53:26;;;;;;;75.80;33.43;;;10.60;99.90;;;;;;5103966;27;20206;-58
2021/11/14 10:56:01;;;;;;;77.33;33.00;;;10.60;99.90;;;;;;5099227;27;20270;-58
2021/11/14 10:58:32;;;;;;;76.47;31.63;;;10.60;99.90;;;;;;5107229;27;20205;-59
2021/11/14 11:01:02;;;;;;;74.03;31.07;;;10.60;99.90;;;;;;5104470;27;20290;-59
2021/11/14 11:03:34;;;;;;;74.70;30.57;;;10.60;99.90;;;;;;5105271;28;20223;-58
2021/11/14 11:06:05;;;;;;;71.77;29.40;;;10.70;99.90;;;;;;5103696;27;20553;-58
2021/11/14 11:08:34;;;;;;;73.33;29.87;;;10.70;99.90;;;;;;5100015;27;20219;-58
2021/11/14 11:11:23;;;;;;;79.30;30.63;;;10.70;99.90;;;;;;5107087;27;20274;-58
2021/11/14 11:13:53;;;;;;;79.00;29.80;;;10.70;99.90;;;;;;5098640;28;20195;-59
2021/11/14 11:16:23;;;;;;;78.17;31.60;;;10.70;99.90;;;;;;5100868;27;20280;-58
2021/11/14 11:19:02;;;;;;;78.33;31.93;;;10.70;99.90;;;;;;5105013;27;20209;-58
2021/11/14 11:21:31;;;;;;;76.83;31.67;;;10.70;99.90;;;;;;5101814;28;20222;-58
2021/11/14 11:24:22;;;;;;;79.03;31.43;;;10.70;99.90;;;;;;5101111;27;20292;-59
2021/11/14 11:26:58;;;;;;;84.03;32.67;;;10.70;99.90;;;;;;5097935;27;20716;-59
2021/11/14 11:29:27;;;;;;;79.17;31.53;;;10.70;99.90;;;;;;5104502;27;20266;-58
2021/11/14 11:31:57;;;;;;;77.67;32.70;;;10.70;99.90;;;;;;5103323;28;20198;-58
2021/11/14 11:34:26;;;;;;;82.33;32.77;;;10.70;99.90;;;;;;5097782;28;20183;-58
2021/11/14 11:36:56;;;;;;;92.23;33.70;;;10.60;99.90;;;;;;5101665;28;20688;-59
2021/11/14 11:39:25;;;;;;;85.20;33.93;;;10.60;99.90;;;;;;5102570;27;20205;-59
2021/11/14 11:41:56;;;;;;;90.90;34.97;;;10.50;99.90;;;;;;5089952;28;20248;-59
2021/11/14 11:44:39;;;;;;;86.47;35.60;;;10.60;99.90;;;;;;5104735;27;20557;-58
2021/11/14 11:47:12;;;;;;;86.93;35.57;;;10.50;99.90;;;;;;5100157;28;20663;-57
2021/11/14 11:49:45;;;;;;;92.07;38.53;;;10.50;99.90;;;;;;5101327;27;20198;-58
2021/11/14 11:52:19;;;;;;;84.07;35.43;;;10.50;99.90;;;;;;5098676;27;20203;-59
2021/11/14 11:54:50;;;;;;;87.43;36.57;;;10.50;99.90;;;;;;5107761;27;20213;-58
2021/11/14 11:57:22;;;;;;;87.40;37.50;;;10.50;99.90;;;;;;5098474;27;20198;-59
2021/11/14 11:59:55;;;;;;;90.10;37.37;;;10.50;99.90;;;;;;5101133;27;20202;-58
2021/11/14 12:02:26;;;;;;;83.97;36.23;;;10.50;99.90;;;;;;5093718;27;21081;-59
2021/11/14 12:05:32;;;;;;;81.00;33.60;;;10.50;99.90;;;;;;5103028;27;20251;-59
2021/11/14 12:08:14;;;;;;;77.67;34.70;;;10.50;99.90;;;;;;5095572;27;20179;-59
2021/11/14 12:10:44;;;;;;;69.30;31.67;;;10.50;99.90;;;;;;5101302;27;20197;-58
2021/11/14 12:13:18;;;;;;;78.37;33.43;;;10.50;99.90;;;;;;5098457;28;20202;-58
2021/11/14 12:15:57;;;;;;;75.97;34.27;;;10.40;99.90;;;;;;5111042;27;20223;-58
2021/11/14 12:18:36;;;;;;;73.13;33.60;;;10.50;99.90;;;;;;5097035;27;20690;-58
2021/11/14 12:21:15;;;;;;;77.40;34.67;;;10.50;99.90;;;;;;5092295;27;20568;-59
2021/11/14 12:23:55;;;;;;;73.43;33.77;;;10.50;99.90;;;;;;5103935;27;20272;-58
2021/11/14 12:26:29;;;;;;;68.80;32.13;;;10.50;99.90;;;;;;5099042;28;20229;-58
2021/11/14 12:29:03;;;;;;;71.40;33.10;;;10.50;99.90;;;;;;5101795;28;20202;-58
2021/11/14 12:31:34;;;;;;;71.20;32.27;;;10.50;99.90;;;;;;5106397;27;20271;-58
2021/11/14 12:34:10;;;;;;;66.63;30.63;;;10.50;99.90;;;;;;5107087;27;20273;-59
2021/11/14 12:36:41;;;;;;;67.37;31.80;;;10.40;99.90;;;;;;5105623;27;20653;-59
2021/11/14 12:39:14;;;;;;;61.40;30.37;;;10.40;99.90;;;;;;5100718;27;20226;-58
2021/11/14 12:41:56;;;;;;;65.47;31.23;;;10.40;99.90;;;;;;5102917;27;20231;-58
2021/11/14 12:44:35;;;;;;;66.97;31.00;;;10.50;99.90;;;;;;5104921;27;20334;-58